Tyler, TX

10:56 AM CDT on October 21, 2014 (GMT -0500)
Cherokee County | Change Station
CLOSE
Current Station
Airport
Location: Jacksonville,
Elevation: 676 ft
Nearby Weather Stations

Elev 676 ft 31.87 °N, 95.22 °W | Updated 21 minutes ago

Clear
Clear
70 °F
Feels Like 70 °F
N
5
Wind Variable Wind from East

Today
High -- | Low -- °F
--% Chance of Precip.
Yesterday
High -- | Low -- °F
Precip. -- in
7:29 AM 6:41 PM
Waning Crescent, 5% visible
Pressure 30.14 in
Visibility 7.0 miles
Clouds Clear
Dew Point 56 °F
Humidity 59%
Rainfall 0.00 in
Snow Depth Not available.
UV 4 out of 12
Pollen 2.40 out of 12
Ozone Good
PM2.5 Moderate
Flu Activity Sporadic
METAR KJSO 211535Z AUTO 08004KT 7SM CLR 21/13 A3014 RMK AO2 T02140131

More Conditions Fewer Conditions

Pressure 30.14 in
Visibility 7.0 miles
Clouds Clear
Dew Point 56 °F
Humidity 59%
Rainfall 0.00 in
Snow Depth Not available.
UV 4 out of 12
Pollen 2.40 out of 12
Ozone Good
PM2.5 Moderate
Flu Activity Sporadic
METAR KJSO 211535Z AUTO 08004KT 7SM CLR 21/13 A3014 RMK AO2 T02140131

More Conditions Fewer Conditions

10-Day Weather Forecast

Almanac

Astronomy

Oct. 21, 2014 Rise Set
Actual Time 7:29 AM CDT 6:41 PM CDT
Civil Twilight 7:04 AM CDT 7:06 PM CDT
Nautical Twilight 6:35 AM CDT 7:35 PM CDT
Astronomical Twilight 6:07 AM CDT 8:03 PM CDT
Moon 5:21 AM CDT 5:30 PM CDT
Length of Visible Light 12h 02m
Length of Day
11h 12m
Tomorrow will be 1m 51s shorter.
Waning Crescent, 5% of the Moon is Illuminated
Today
Waning Crescent
Oct 23
New
Oct 30
First Quarter
Nov 6
Full
Nov 14
Last Quarter

Today's Extremes

State Highs State Lows

Community

WunderPhotos

Upload Photos

1,763,700 photos uploaded!

WunderBlogs® & News

Nearby

Air Quality

  Air Quality AQ Index Pollutant
Yesterday Good
OZONE
Yesterday Good
PM2.5
Current Moderate
PM2.5
Current Good
OZONE
Tuesday Good
PM10
Tuesday Good
OZONE
Wednesday Good
PM10
Wednesday Good
OZONE
Thursday Good
PM10
Thursday Good
OZONE
Friday Good
PM10
Friday Good
OZONE

Snow Depth

Station Depth Elevation
No new snow has been reported.

Earthquake Activity

City Distance Mag. Time & Date
No recent earthquake activity has been reported nearby.
Minimum magnitude displayed is 2.5.

Coastal Water Temperatures

Place Temperature
No Stations Reporting

Nearby Weather Stations